sensor_id;sensor_type;location;lat;lon;timestamp;temperature;humidity
13880;DHT22;7010;48.200;16.332;2023-03-25T00:01:19;13.20;99.90
13880;DHT22;7010;48.200;16.332;2023-03-25T00:03:51;13.20;99.90
13880;DHT22;7010;48.200;16.332;2023-03-25T00:06:20;13.10;99.90
13880;DHT22;7010;48.200;16.332;2023-03-25T00:08:48;13.10;99.90
13880;DHT22;7010;48.200;16.332;2023-03-25T00:11:16;13.10;99.90
13880;DHT22;7010;48.200;16.332;2023-03-25T00:13:45;13.10;99.90
13880;DHT22;7010;48.200;16.332;2023-03-25T00:16:14;13.10;99.90
13880;DHT22;7010;48.200;16.332;2023-03-25T00:18:46;13.10;99.90
13880;DHT22;7010;48.200;16.332;2023-03-25T00:21:15;13.00;99.90
13880;DHT22;7010;48.200;16.332;2023-03-25T00:23:44;13.10;99.90
13880;DHT22;7010;48.200;16.332;2023-03-25T00:26:13;13.00;99.90
13880;DHT22;7010;48.200;16.332;2023-03-25T00:28:42;13.00;99.90
13880;DHT22;7010;48.200;16.332;2023-03-25T00:31:12;13.00;99.90
13880;DHT22;7010;48.200;16.332;2023-03-25T00:33:41;13.00;99.90
13880;DHT22;7010;48.200;16.332;2023-03-25T00:36:12;13.00;99.90
13880;DHT22;7010;48.200;16.332;2023-03-25T00:38:41;13.00;99.90
13880;DHT22;7010;48.200;16.332;2023-03-25T00:41:13;13.00;99.90
13880;DHT22;7010;48.200;16.332;2023-03-25T00:43:43;13.00;99.90
13880;DHT22;7010;48.200;16.332;2023-03-25T00:46:12;13.00;99.90
13880;DHT22;7010;48.200;16.332;2023-03-25T00:48:40;13.00;99.90
13880;DHT22;7010;48.200;16.332;2023-03-25T00:51:11;13.00;99.90
13880;DHT22;7010;48.200;16.332;2023-03-25T00:53:40;13.00;99.90
13880;DHT22;7010;48.200;16.332;2023-03-25T00:56:08;12.90;99.90
13880;DHT22;7010;48.200;16.332;2023-03-25T00:58:38;13.00;99.90
13880;DHT22;7010;48.200;16.332;2023-03-25T01:01:08;13.00;99.90
13880;DHT22;7010;48.200;16.332;2023-03-25T01:03:39;13.00;99.90
13880;DHT22;7010;48.200;16.332;2023-03-25T01:06:13;13.00;99.90
13880;DHT22;7010;48.200;16.332;2023-03-25T01:08:42;13.00;99.90
13880;DHT22;7010;48.200;16.332;2023-03-25T01:11:18;13.00;99.90
13880;DHT22;7010;48.200;16.332;2023-03-25T01:13:47;13.00;99.90
13880;DHT22;7010;48.200;16.332;2023-03-25T01:16:15;13.00;99.90
13880;DHT22;7010;48.200;16.332;2023-03-25T01:18:43;13.00;99.90
13880;DHT22;7010;48.200;16.332;2023-03-25T01:21:13;13.00;99.90
13880;DHT22;7010;48.200;16.332;2023-03-25T01:23:42;13.00;99.90
13880;DHT22;7010;48.200;16.332;2023-03-25T01:26:10;13.00;99.90
13880;DHT22;7010;48.200;16.332;2023-03-25T01:28:40;12.90;99.90
13880;DHT22;7010;48.200;16.332;2023-03-25T01:31:10;12.90;99.90
13880;DHT22;7010;48.200;16.332;2023-03-25T01:33:39;12.90;99.90
13880;DHT22;7010;48.200;16.332;2023-03-25T01:36:09;12.90;99.90
13880;DHT22;7010;48.200;16.332;2023-03-25T01:38:41;12.80;99.90
13880;DHT22;7010;48.200;16.332;2023-03-25T01:41:09;12.80;99.90
13880;DHT22;7010;48.200;16.332;2023-03-25T01:43:38;12.80;99.90
13880;DHT22;7010;48.200;16.332;2023-03-25T01:46:10;12.80;99.90
13880;DHT22;7010;48.200;16.332;2023-03-25T01:48:45;12.80;99.90
13880;DHT22;7010;48.200;16.332;2023-03-25T01:51:17;12.70;99.90
13880;DHT22;7010;48.200;16.332;2023-03-25T01:53:49;12.70;99.90
13880;DHT22;7010;48.200;16.332;2023-03-25T01:56:22;12.70;99.90
13880;DHT22;7010;48.200;16.332;2023-03-25T01:58:51;12.70;99.90
13880;DHT22;7010;48.200;16.332;2023-03-25T02:01:22;12.70;99.90
13880;DHT22;7010;48.200;16.332;2023-03-25T02:03:53;12.60;99.90
13880;DHT22;7010;48.200;16.332;2023-03-25T02:06:33;12.60;99.90
13880;DHT22;7010;48.200;16.332;2023-03-25T02:09:06;12.60;99.90
13880;DHT22;7010;48.200;16.332;2023-03-25T02:11:35;12.60;99.90
13880;DHT22;7010;48.200;16.332;2023-03-25T02:14:07;12.60;99.90
13880;DHT22;7010;48.200;16.332;2023-03-25T02:16:44;12.60;99.90
13880;DHT22;7010;48.200;16.332;2023-03-25T02:23:04;12.60;99.90
13880;DHT22;7010;48.200;16.332;2023-03-25T02:26:09;12.60;99.90
13880;DHT22;7010;48.200;16.332;2023-03-25T02:28:48;12.50;99.90
13880;DHT22;7010;48.200;16.332;2023-03-25T02:31:42;12.60;99.90
13880;DHT22;7010;48.200;16.332;2023-03-25T02:34:32;12.50;99.90
13880;DHT22;7010;48.200;16.332;2023-03-25T02:37:32;12.50;99.90
13880;DHT22;7010;48.200;16.332;2023-03-25T02:40:08;12.50;99.90
13880;DHT22;7010;48.200;16.332;2023-03-25T02:42:43;12.50;99.90
13880;DHT22;7010;48.200;16.332;2023-03-25T02:45:17;12.40;99.90
13880;DHT22;7010;48.200;16.332;2023-03-25T02:47:49;12.40;99.90
13880;DHT22;7010;48.200;16.332;2023-03-25T02:50:23;12.40;99.90
13880;DHT22;7010;48.200;16.332;2023-03-25T02:52:55;12.40;99.90
13880;DHT22;7010;48.200;16.332;2023-03-25T02:55:28;12.40;99.90
13880;DHT22;7010;48.200;16.332;2023-03-25T02:57:57;12.40;99.90
13880;DHT22;7010;48.200;16.332;2023-03-25T03:00:28;12.30;99.90
13880;DHT22;7010;48.200;16.332;2023-03-25T03:02:59;12.40;99.90
13880;DHT22;7010;48.200;16.332;2023-03-25T03:05:29;12.30;99.90
13880;DHT22;7010;48.200;16.332;2023-03-25T03:08:07;12.30;99.90
13880;DHT22;7010;48.200;16.332;2023-03-25T03:10:50;12.30;99.90
13880;DHT22;7010;48.200;16.332;2023-03-25T03:13:31;12.20;99.90
13880;DHT22;7010;48.200;16.332;2023-03-25T03:16:07;12.20;99.90
13880;DHT22;7010;48.200;16.332;2023-03-25T03:18:45;12.20;99.90
13880;DHT22;7010;48.200;16.332;2023-03-25T03:21:19;12.20;99.90
13880;DHT22;7010;48.200;16.332;2023-03-25T03:23:55;12.20;99.90
13880;DHT22;7010;48.200;16.332;2023-03-25T03:26:34;12.20;99.90
13880;DHT22;7010;48.200;16.332;2023-03-25T03:29:09;12.20;99.90
13880;DHT22;7010;48.200;16.332;2023-03-25T03:31:43;12.10;99.90
13880;DHT22;7010;48.200;16.332;2023-03-25T03:34:35;12.10;99.90
13880;DHT22;7010;48.200;16.332;2023-03-25T03:37:11;12.10;99.90
13880;DHT22;7010;48.200;16.332;2023-03-25T03:39:41;12.10;99.90
13880;DHT22;7010;48.200;16.332;2023-03-25T03:42:16;12.10;99.90
13880;DHT22;7010;48.200;16.332;2023-03-25T03:44:50;12.10;99.90
13880;DHT22;7010;48.200;16.332;2023-03-25T03:47:22;12.10;99.90
13880;DHT22;7010;48.200;16.332;2023-03-25T03:49:55;12.10;99.90
13880;DHT22;7010;48.200;16.332;2023-03-25T03:52:29;12.10;99.90
13880;DHT22;7010;48.200;16.332;2023-03-25T03:55:03;12.10;99.90
13880;DHT22;7010;48.200;16.332;2023-03-25T03:57:38;12.10;99.90
13880;DHT22;7010;48.200;16.332;2023-03-25T04:00:12;12.10;99.90
13880;DHT22;7010;48.200;16.332;2023-03-25T04:02:45;12.00;99.90
13880;DHT22;7010;48.200;16.332;2023-03-25T04:05:17;12.00;99.90
13880;DHT22;7010;48.200;16.332;2023-03-25T04:07:50;12.00;99.90
13880;DHT22;7010;48.200;16.332;2023-03-25T04:10:29;12.00;99.90
13880;DHT22;7010;48.200;16.332;2023-03-25T04:13:09;12.00;99.90
13880;DHT22;7010;48.200;16.332;2023-03-25T04:15:40;11.90;99.90
13880;DHT22;7010;48.200;16.332;2023-03-25T04:18:08;11.90;99.90
13880;DHT22;7010;48.200;16.332;2023-03-25T04:20:38;11.90;99.90
13880;DHT22;7010;48.200;16.332;2023-03-25T04:23:11;11.90;99.90
13880;DHT22;7010;48.200;16.332;2023-03-25T04:25:41;11.90;99.90
13880;DHT22;7010;48.200;16.332;2023-03-25T04:28:15;11.90;99.90
13880;DHT22;7010;48.200;16.332;2023-03-25T04:30:44;11.90;99.90
13880;DHT22;7010;48.200;16.332;2023-03-25T04:33:12;11.80;99.90
13880;DHT22;7010;48.200;16.332;2023-03-25T04:35:41;11.80;99.90
13880;DHT22;7010;48.200;16.332;2023-03-25T04:38:09;11.80;99.90
13880;DHT22;7010;48.200;16.332;2023-03-25T04:40:37;11.80;99.90
13880;DHT22;7010;48.200;16.332;2023-03-25T04:43:06;11.80;99.90
13880;DHT22;7010;48.200;16.332;2023-03-25T04:45:36;11.80;99.90
13880;DHT22;7010;48.200;16.332;2023-03-25T04:48:05;11.70;99.90
13880;DHT22;7010;48.200;16.332;2023-03-25T04:50:40;11.70;99.90
13880;DHT22;7010;48.200;16.332;2023-03-25T04:53:09;11.70;99.90
13880;DHT22;7010;48.200;16.332;2023-03-25T04:55:37;11.70;99.90
13880;DHT22;7010;48.200;16.332;2023-03-25T04:58:14;11.70;99.90
13880;DHT22;7010;48.200;16.332;2023-03-25T05:00:45;11.70;99.90
13880;DHT22;7010;48.200;16.332;2023-03-25T05:03:16;11.70;99.90
13880;DHT22;7010;48.200;16.332;2023-03-25T05:05:50;11.70;99.90
13880;DHT22;7010;48.200;16.332;2023-03-25T05:08:19;11.60;99.90
13880;DHT22;7010;48.200;16.332;2023-03-25T05:10:48;11.60;99.90
13880;DHT22;7010;48.200;16.332;2023-03-25T05:13:17;11.60;99.90
13880;DHT22;7010;48.200;16.332;2023-03-25T05:15:47;11.60;99.90
13880;DHT22;7010;48.200;16.332;2023-03-25T05:18:15;11.60;99.90
13880;DHT22;7010;48.200;16.332;2023-03-25T05:20:45;11.60;99.90
13880;DHT22;7010;48.200;16.332;2023-03-25T05:23:17;11.60;99.90
13880;DHT22;7010;48.200;16.332;2023-03-25T05:25:46;11.60;99.90
13880;DHT22;7010;48.200;16.332;2023-03-25T05:28:15;11.60;99.90
13880;DHT22;7010;48.200;16.332;2023-03-25T05:30:46;11.60;99.90
13880;DHT22;7010;48.200;16.332;2023-03-25T05:33:16;11.60;99.90
13880;DHT22;7010;48.200;16.332;2023-03-25T05:35:45;11.60;99.90
13880;DHT22;7010;48.200;16.332;2023-03-25T05:38:14;11.60;99.90
13880;DHT22;7010;48.200;16.332;2023-03-25T05:40:44;11.70;99.90
13880;DHT22;7010;48.200;16.332;2023-03-25T05:43:13;11.70;99.90
13880;DHT22;7010;48.200;16.332;2023-03-25T05:45:42;11.70;99.90
13880;DHT22;7010;48.200;16.332;2023-03-25T05:48:14;11.70;99.90
13880;DHT22;7010;48.200;16.332;2023-03-25T05:50:42;11.70;99.90
13880;DHT22;7010;48.200;16.332;2023-03-25T05:53:12;11.70;99.90
13880;DHT22;7010;48.200;16.332;2023-03-25T05:55:41;11.80;99.90
13880;DHT22;7010;48.200;16.332;2023-03-25T05:58:10;11.80;99.90
13880;DHT22;7010;48.200;16.332;2023-03-25T06:00:38;11.80;99.90
13880;DHT22;7010;48.200;16.332;2023-03-25T06:03:06;11.80;99.90
13880;DHT22;7010;48.200;16.332;2023-03-25T06:05:39;11.80;99.90
13880;DHT22;7010;48.200;16.332;2023-03-25T06:08:08;11.80;99.90
13880;DHT22;7010;48.200;16.332;2023-03-25T06:10:38;11.90;99.90
13880;DHT22;7010;48.200;16.332;2023-03-25T06:13:06;11.90;99.90
13880;DHT22;7010;48.200;16.332;2023-03-25T06:15:35;11.90;99.90
13880;DHT22;7010;48.200;16.332;2023-03-25T06:18:06;11.90;99.90
13880;DHT22;7010;48.200;16.332;2023-03-25T06:20:36;11.90;99.90
13880;DHT22;7010;48.200;16.332;2023-03-25T06:23:06;11.90;99.90
13880;DHT22;7010;48.200;16.332;2023-03-25T06:25:35;11.90;99.90
13880;DHT22;7010;48.200;16.332;2023-03-25T06:28:04;11.90;99.90
13880;DHT22;7010;48.200;16.332;2023-03-25T06:30:32;11.90;99.90
13880;DHT22;7010;48.200;16.332;2023-03-25T06:33:01;11.90;99.90
13880;DHT22;7010;48.200;16.332;2023-03-25T06:35:32;11.90;99.90
13880;DHT22;7010;48.200;16.332;2023-03-25T06:38:00;11.90;99.90
13880;DHT22;7010;48.200;16.332;2023-03-25T06:40:31;11.90;99.90
13880;DHT22;7010;48.200;16.332;2023-03-25T06:43:00;11.90;99.90
13880;DHT22;7010;48.200;16.332;2023-03-25T06:45:29;11.90;99.90
13880;DHT22;7010;48.200;16.332;2023-03-25T06:47:57;11.90;99.90
13880;DHT22;7010;48.200;16.332;2023-03-25T06:50:26;11.90;99.90
13880;DHT22;7010;48.200;16.332;2023-03-25T06:52:54;11.90;99.90
13880;DHT22;7010;48.200;16.332;2023-03-25T06:55:23;12.00;99.90
13880;DHT22;7010;48.200;16.332;2023-03-25T06:57:55;12.00;99.90
13880;DHT22;7010;48.200;16.332;2023-03-25T07:00:23;11.90;99.90
13880;DHT22;7010;48.200;16.332;2023-03-25T07:02:54;11.90;99.90
13880;DHT22;7010;48.200;16.332;2023-03-25T07:05:24;12.00;99.90
13880;DHT22;7010;48.200;16.332;2023-03-25T07:07:52;12.00;99.90
13880;DHT22;7010;48.200;16.332;2023-03-25T07:10:21;11.90;99.90
13880;DHT22;7010;48.200;16.332;2023-03-25T07:12:49;12.00;99.90
13880;DHT22;7010;48.200;16.332;2023-03-25T07:15:19;12.00;99.90
13880;DHT22;7010;48.200;16.332;2023-03-25T07:17:47;12.00;99.90
13880;DHT22;7010;48.200;16.332;2023-03-25T07:20:16;12.00;99.90
13880;DHT22;7010;48.200;16.332;2023-03-25T07:22:46;12.00;99.90
13880;DHT22;7010;48.200;16.332;2023-03-25T07:25:15;12.10;99.90
13880;DHT22;7010;48.200;16.332;2023-03-25T07:27:43;12.10;99.90
13880;DHT22;7010;48.200;16.332;2023-03-25T07:30:12;12.20;99.90
13880;DHT22;7010;48.200;16.332;2023-03-25T07:32:43;12.20;99.90
13880;DHT22;7010;48.200;16.332;2023-03-25T07:35:11;12.20;99.90
13880;DHT22;7010;48.200;16.332;2023-03-25T07:37:40;12.20;99.90
13880;DHT22;7010;48.200;16.332;2023-03-25T07:40:09;12.20;99.90
13880;DHT22;7010;48.200;16.332;2023-03-25T07:42:37;12.30;99.90
13880;DHT22;7010;48.200;16.332;2023-03-25T07:45:07;12.40;99.90
13880;DHT22;7010;48.200;16.332;2023-03-25T07:47:36;12.40;99.90
13880;DHT22;7010;48.200;16.332;2023-03-25T07:50:08;12.40;99.90
13880;DHT22;7010;48.200;16.332;2023-03-25T07:52:36;12.40;99.90
13880;DHT22;7010;48.200;16.332;2023-03-25T07:55:05;12.50;99.90
13880;DHT22;7010;48.200;16.332;2023-03-25T07:57:34;12.50;99.90
13880;DHT22;7010;48.200;16.332;2023-03-25T08:00:04;12.60;99.90
13880;DHT22;7010;48.200;16.332;2023-03-25T08:02:32;12.60;99.90
13880;DHT22;7010;48.200;16.332;2023-03-25T08:05:01;12.60;99.90
13880;DHT22;7010;48.200;16.332;2023-03-25T08:07:32;12.60;99.90
13880;DHT22;7010;48.200;16.332;2023-03-25T08:10:01;12.60;99.90
13880;DHT22;7010;48.200;16.332;2023-03-25T08:12:29;12.60;99.90
13880;DHT22;7010;48.200;16.332;2023-03-25T08:14:58;12.60;99.90
13880;DHT22;7010;48.200;16.332;2023-03-25T08:17:26;12.70;99.90
13880;DHT22;7010;48.200;16.332;2023-03-25T08:19:55;12.70;99.90
13880;DHT22;7010;48.200;16.332;2023-03-25T08:22:26;12.70;99.90
13880;DHT22;7010;48.200;16.332;2023-03-25T08:24:56;12.70;99.90
13880;DHT22;7010;48.200;16.332;2023-03-25T08:27:24;12.60;99.90
13880;DHT22;7010;48.200;16.332;2023-03-25T08:29:53;12.60;99.90
13880;DHT22;7010;48.200;16.332;2023-03-25T08:32:23;12.60;99.90
13880;DHT22;7010;48.200;16.332;2023-03-25T08:34:53;12.60;99.90
13880;DHT22;7010;48.200;16.332;2023-03-25T08:37:22;12.60;99.90
13880;DHT22;7010;48.200;16.332;2023-03-25T08:39:51;12.70;99.90
13880;DHT22;7010;48.200;16.332;2023-03-25T08:42:23;12.70;99.90
13880;DHT22;7010;48.200;16.332;2023-03-25T08:44:52;12.70;99.90
13880;DHT22;7010;48.200;16.332;2023-03-25T08:47:20;12.70;99.90
13880;DHT22;7010;48.200;16.332;2023-03-25T08:49:52;12.70;99.90
13880;DHT22;7010;48.200;16.332;2023-03-25T08:52:26;12.80;99.90
13880;DHT22;7010;48.200;16.332;2023-03-25T08:54:55;12.80;99.90
13880;DHT22;7010;48.200;16.332;2023-03-25T08:57:25;12.80;99.90
13880;DHT22;7010;48.200;16.332;2023-03-25T08:59:53;12.80;99.90
13880;DHT22;7010;48.200;16.332;2023-03-25T09:02:21;12.80;99.90
13880;DHT22;7010;48.200;16.332;2023-03-25T09:04:50;12.90;99.90
13880;DHT22;7010;48.200;16.332;2023-03-25T09:07:18;12.90;99.90
13880;DHT22;7010;48.200;16.332;2023-03-25T09:09:49;12.90;99.90
13880;DHT22;7010;48.200;16.332;2023-03-25T09:12:19;12.90;99.90
13880;DHT22;7010;48.200;16.332;2023-03-25T09:14:49;12.90;99.90
13880;DHT22;7010;48.200;16.332;2023-03-25T09:17:17;13.00;99.90
13880;DHT22;7010;48.200;16.332;2023-03-25T09:19:45;13.00;99.90
13880;DHT22;7010;48.200;16.332;2023-03-25T09:22:14;13.00;99.90
13880;DHT22;7010;48.200;16.332;2023-03-25T09:24:45;13.00;99.90
13880;DHT22;7010;48.200;16.332;2023-03-25T09:27:13;13.10;99.90
13880;DHT22;7010;48.200;16.332;2023-03-25T09:29:41;13.10;99.90
13880;DHT22;7010;48.200;16.332;2023-03-25T09:32:11;13.10;99.90
13880;DHT22;7010;48.200;16.332;2023-03-25T09:34:40;13.00;99.90
13880;DHT22;7010;48.200;16.332;2023-03-25T09:37:09;13.10;99.90
13880;DHT22;7010;48.200;16.332;2023-03-25T09:39:38;13.10;99.90
13880;DHT22;7010;48.200;16.332;2023-03-25T09:42:22;13.20;99.90
13880;DHT22;7010;48.200;16.332;2023-03-25T09:44:56;13.20;99.90
13880;DHT22;7010;48.200;16.332;2023-03-25T09:47:40;13.30;99.90
13880;DHT22;7010;48.200;16.332;2023-03-25T09:50:13;13.30;99.90
13880;DHT22;7010;48.200;16.332;2023-03-25T09:52:48;13.30;99.90
13880;DHT22;7010;48.200;16.332;2023-03-25T09:55:22;13.30;99.90
13880;DHT22;7010;48.200;16.332;2023-03-25T09:57:55;13.20;99.90
13880;DHT22;7010;48.200;16.332;2023-03-25T10:00:25;13.30;99.90
13880;DHT22;7010;48.200;16.332;2023-03-25T10:03:01;13.30;99.90
13880;DHT22;7010;48.200;16.332;2023-03-25T10:05:44;13.30;99.90
13880;DHT22;7010;48.200;16.332;2023-03-25T10:08:22;13.40;99.90
13880;DHT22;7010;48.200;16.332;2023-03-25T10:10:57;13.50;99.90
13880;DHT22;7010;48.200;16.332;2023-03-25T10:13:36;13.70;99.90
13880;DHT22;7010;48.200;16.332;2023-03-25T10:16:17;13.80;99.90
13880;DHT22;7010;48.200;16.332;2023-03-25T10:18:58;13.80;99.90
13880;DHT22;7010;48.200;16.332;2023-03-25T10:21:36;13.80;99.90
13880;DHT22;7010;48.200;16.332;2023-03-25T10:24:15;13.80;99.90
13880;DHT22;7010;48.200;16.332;2023-03-25T10:26:47;13.80;99.90
13880;DHT22;7010;48.200;16.332;2023-03-25T10:29:24;13.90;99.90
13880;DHT22;7010;48.200;16.332;2023-03-25T10:31:56;13.90;99.90
13880;DHT22;7010;48.200;16.332;2023-03-25T10:34:33;13.90;99.90
13880;DHT22;7010;48.200;16.332;2023-03-25T10:37:05;13.90;99.90
13880;DHT22;7010;48.200;16.332;2023-03-25T10:39:40;13.90;99.90
13880;DHT22;7010;48.200;16.332;2023-03-25T10:42:18;13.90;99.90
13880;DHT22;7010;48.200;16.332;2023-03-25T10:44:47;13.90;99.90
13880;DHT22;7010;48.200;16.332;2023-03-25T10:47:18;13.90;99.90
13880;DHT22;7010;48.200;16.332;2023-03-25T10:49:49;13.90;99.90
13880;DHT22;7010;48.200;16.332;2023-03-25T10:52:18;13.80;99.90
13880;DHT22;7010;48.200;16.332;2023-03-25T10:54:49;13.70;99.90
13880;DHT22;7010;48.200;16.332;2023-03-25T10:57:22;13.80;99.90
13880;DHT22;7010;48.200;16.332;2023-03-25T10:59:59;13.80;99.90
13880;DHT22;7010;48.200;16.332;2023-03-25T11:02:30;13.90;99.90
13880;DHT22;7010;48.200;16.332;2023-03-25T11:05:04;13.80;99.90
13880;DHT22;7010;48.200;16.332;2023-03-25T11:07:36;13.70;99.90
13880;DHT22;7010;48.200;16.332;2023-03-25T11:10:14;13.60;99.90
13880;DHT22;7010;48.200;16.332;2023-03-25T11:12:44;13.60;99.90
13880;DHT22;7010;48.200;16.332;2023-03-25T11:15:15;13.70;99.70
13880;DHT22;7010;48.200;16.332;2023-03-25T11:17:46;13.70;98.80
13880;DHT22;7010;48.200;16.332;2023-03-25T11:20:21;13.70;98.80
13880;DHT22;7010;48.200;16.332;2023-03-25T11:22:53;13.70;98.60
13880;DHT22;7010;48.200;16.332;2023-03-25T11:25:32;13.80;98.50
13880;DHT22;7010;48.200;16.332;2023-03-25T11:28:11;14.00;98.70
13880;DHT22;7010;48.200;16.332;2023-03-25T11:31:09;14.10;97.70
13880;DHT22;7010;48.200;16.332;2023-03-25T11:33:39;14.10;97.50
13880;DHT22;7010;48.200;16.332;2023-03-25T11:36:27;14.20;97.20
13880;DHT22;7010;48.200;16.332;2023-03-25T11:38:57;14.30;96.80
13880;DHT22;7010;48.200;16.332;2023-03-25T11:41:34;14.40;96.60
13880;DHT22;7010;48.200;16.332;2023-03-25T11:44:04;14.50;96.20
13880;DHT22;7010;48.200;16.332;2023-03-25T11:46:33;14.60;96.30
13880;DHT22;7010;48.200;16.332;2023-03-25T11:49:09;14.80;96.20
13880;DHT22;7010;48.200;16.332;2023-03-25T11:51:40;14.80;96.10
13880;DHT22;7010;48.200;16.332;2023-03-25T11:54:12;14.80;95.50
13880;DHT22;7010;48.200;16.332;2023-03-25T11:56:43;15.10;95.30
13880;DHT22;7010;48.200;16.332;2023-03-25T11:59:19;15.20;94.40
13880;DHT22;7010;48.200;16.332;2023-03-25T12:01:50;15.20;94.50
13880;DHT22;7010;48.200;16.332;2023-03-25T12:04:21;15.20;94.70
13880;DHT22;7010;48.200;16.332;2023-03-25T12:06:58;15.30;94.40
13880;DHT22;7010;48.200;16.332;2023-03-25T12:09:29;15.10;93.90
13880;DHT22;7010;48.200;16.332;2023-03-25T12:12:06;15.00;94.20
13880;DHT22;7010;48.200;16.332;2023-03-25T12:14:48;14.90;94.80
13880;DHT22;7010;48.200;16.332;2023-03-25T12:17:28;14.80;94.50
13880;DHT22;7010;48.200;16.332;2023-03-25T12:20:02;14.70;94.40
13880;DHT22;7010;48.200;16.332;2023-03-25T12:22:51;14.70;94.50
13880;DHT22;7010;48.200;16.332;2023-03-25T12:25:27;14.70;95.00
13880;DHT22;7010;48.200;16.332;2023-03-25T12:28:13;14.80;95.60
13880;DHT22;7010;48.200;16.332;2023-03-25T12:30:54;15.00;94.60
13880;DHT22;7010;48.200;16.332;2023-03-25T12:33:35;15.10;94.10
13880;DHT22;7010;48.200;16.332;2023-03-25T12:36:24;15.00;94.10
13880;DHT22;7010;48.200;16.332;2023-03-25T12:39:05;14.90;93.90
13880;DHT22;7010;48.200;16.332;2023-03-25T12:41:41;14.90;93.80
13880;DHT22;7010;48.200;16.332;2023-03-25T12:44:33;14.70;93.70
13880;DHT22;7010;48.200;16.332;2023-03-25T12:47:11;14.70;94.00
13880;DHT22;7010;48.200;16.332;2023-03-25T12:49:52;14.80;92.90
13880;DHT22;7010;48.200;16.332;2023-03-25T12:52:31;14.90;93.10
13880;DHT22;7010;48.200;16.332;2023-03-25T12:55:17;15.20;92.80
13880;DHT22;7010;48.200;16.332;2023-03-25T12:57:59;15.60;92.40
13880;DHT22;7010;48.200;16.332;2023-03-25T13:00:37;16.00;92.10
13880;DHT22;7010;48.200;16.332;2023-03-25T13:06:10;16.20;91.90
13880;DHT22;7010;48.200;16.332;2023-03-25T13:08:46;16.20;92.00
13880;DHT22;7010;48.200;16.332;2023-03-25T13:11:22;16.10;90.90
13880;DHT22;7010;48.200;16.332;2023-03-25T13:13:55;16.00;90.40
13880;DHT22;7010;48.200;16.332;2023-03-25T13:16:27;16.00;90.40
13880;DHT22;7010;48.200;16.332;2023-03-25T13:19:02;16.10;90.80
13880;DHT22;7010;48.200;16.332;2023-03-25T13:21:34;16.30;90.70
13880;DHT22;7010;48.200;16.332;2023-03-25T13:24:05;16.30;90.50
13880;DHT22;7010;48.200;16.332;2023-03-25T13:26:37;16.30;90.70
13880;DHT22;7010;48.200;16.332;2023-03-25T13:29:12;16.30;90.40
13880;DHT22;7010;48.200;16.332;2023-03-25T13:31:44;16.50;90.30
13880;DHT22;7010;48.200;16.332;2023-03-25T13:34:20;16.60;86.10
13880;DHT22;7010;48.200;16.332;2023-03-25T13:36:58;16.70;81.10
13880;DHT22;7010;48.200;16.332;2023-03-25T13:39:39;16.50;79.70
13880;DHT22;7010;48.200;16.332;2023-03-25T13:42:14;16.60;79.50
13880;DHT22;7010;48.200;16.332;2023-03-25T13:44:45;16.40;78.40
13880;DHT22;7010;48.200;16.332;2023-03-25T13:47:22;16.40;79.30
13880;DHT22;7010;48.200;16.332;2023-03-25T13:49:55;16.20;77.70
13880;DHT22;7010;48.200;16.332;2023-03-25T13:52:26;16.00;78.00
13880;DHT22;7010;48.200;16.332;2023-03-25T13:54:57;15.90;77.60
13880;DHT22;7010;48.200;16.332;2023-03-25T13:58:02;15.80;77.90
13880;DHT22;7010;48.200;16.332;2023-03-25T14:03:53;16.20;77.80
13880;DHT22;7010;48.200;16.332;2023-03-25T14:09:45;17.50;75.30
13880;DHT22;7010;48.200;16.332;2023-03-25T14:12:20;17.80;72.40
13880;DHT22;7010;48.200;16.332;2023-03-25T14:14:57;17.80;70.70
13880;DHT22;7010;48.200;16.332;2023-03-25T14:17:28;17.30;70.20
13880;DHT22;7010;48.200;16.332;2023-03-25T14:19:57;16.90;72.50
13880;DHT22;7010;48.200;16.332;2023-03-25T14:22:30;16.70;72.60
13880;DHT22;7010;48.200;16.332;2023-03-25T14:25:00;16.70;73.50
13880;DHT22;7010;48.200;16.332;2023-03-25T14:27:30;16.70;73.80
13880;DHT22;7010;48.200;16.332;2023-03-25T14:30:02;16.80;73.70
13880;DHT22;7010;48.200;16.332;2023-03-25T14:32:34;16.60;73.00
13880;DHT22;7010;48.200;16.332;2023-03-25T14:41:14;16.20;73.40
13880;DHT22;7010;48.200;16.332;2023-03-25T14:43:44;16.20;74.40
13880;DHT22;7010;48.200;16.332;2023-03-25T14:46:21;16.20;74.00
13880;DHT22;7010;48.200;16.332;2023-03-25T14:49:08;16.20;73.30
13880;DHT22;7010;48.200;16.332;2023-03-25T14:51:48;16.20;73.20
13880;DHT22;7010;48.200;16.332;2023-03-25T14:54:26;16.10;73.30
13880;DHT22;7010;48.200;16.332;2023-03-25T14:56:59;15.90;73.80
13880;DHT22;7010;48.200;16.332;2023-03-25T14:59:35;15.60;74.60
13880;DHT22;7010;48.200;16.332;2023-03-25T15:02:13;15.50;74.60
13880;DHT22;7010;48.200;16.332;2023-03-25T15:04:44;15.30;75.30
13880;DHT22;7010;48.200;16.332;2023-03-25T15:07:17;15.10;75.60
13880;DHT22;7010;48.200;16.332;2023-03-25T15:09:49;15.10;75.90
13880;DHT22;7010;48.200;16.332;2023-03-25T15:12:23;15.10;76.40
13880;DHT22;7010;48.200;16.332;2023-03-25T15:14:54;15.10;76.50
13880;DHT22;7010;48.200;16.332;2023-03-25T15:17:43;15.00;76.80
13880;DHT22;7010;48.200;16.332;2023-03-25T15:20:29;15.10;77.50
13880;DHT22;7010;48.200;16.332;2023-03-25T15:23:30;15.20;77.40
13880;DHT22;7010;48.200;16.332;2023-03-25T15:26:01;15.20;78.00
13880;DHT22;7010;48.200;16.332;2023-03-25T15:28:53;15.20;77.50
13880;DHT22;7010;48.200;16.332;2023-03-25T15:31:37;15.30;77.80
13880;DHT22;7010;48.200;16.332;2023-03-25T15:34:18;15.40;77.90
13880;DHT22;7010;48.200;16.332;2023-03-25T15:39:55;15.50;77.90
13880;DHT22;7010;48.200;16.332;2023-03-25T15:42:49;15.50;78.30
13880;DHT22;7010;48.200;16.332;2023-03-25T15:45:39;15.50;78.50
13880;DHT22;7010;48.200;16.332;2023-03-25T15:48:24;15.50;78.70
13880;DHT22;7010;48.200;16.332;2023-03-25T15:51:14;15.40;78.70
13880;DHT22;7010;48.200;16.332;2023-03-25T15:56:48;15.10;78.80
13880;DHT22;7010;48.200;16.332;2023-03-25T15:59:27;15.10;79.50
13880;DHT22;7010;48.200;16.332;2023-03-25T16:01:59;15.10;79.40
13880;DHT22;7010;48.200;16.332;2023-03-25T16:04:35;15.10;79.40
13880;DHT22;7010;48.200;16.332;2023-03-25T16:07:09;15.10;79.60
13880;DHT22;7010;48.200;16.332;2023-03-25T16:09:47;15.00;78.40
13880;DHT22;7010;48.200;16.332;2023-03-25T16:12:18;14.80;78.30
13880;DHT22;7010;48.200;16.332;2023-03-25T16:14:49;14.80;78.80
13880;DHT22;7010;48.200;16.332;2023-03-25T16:17:20;14.70;79.00
13880;DHT22;7010;48.200;16.332;2023-03-25T16:19:51;14.60;79.40
13880;DHT22;7010;48.200;16.332;2023-03-25T16:22:24;14.50;79.90
13880;DHT22;7010;48.200;16.332;2023-03-25T16:24:58;14.40;79.80
13880;DHT22;7010;48.200;16.332;2023-03-25T16:27:30;14.30;80.60
13880;DHT22;7010;48.200;16.332;2023-03-25T16:30:00;14.10;81.50
13880;DHT22;7010;48.200;16.332;2023-03-25T16:32:31;14.10;82.30